createdAt,value
2022-10-20T00:01:15.590Z,9.02
2022-10-20T00:03:47.402Z,8.84
2022-10-20T00:06:18.063Z,8.79
2022-10-20T00:08:47.820Z,8.73
2022-10-20T00:11:18.049Z,8.77
2022-10-20T00:13:48.203Z,8.72
2022-10-20T00:16:17.541Z,8.65
2022-10-20T00:18:48.725Z,8.72
2022-10-20T00:21:18.954Z,8.76
2022-10-20T00:23:53.524Z,8.61
2022-10-20T00:26:23.373Z,8.64
2022-10-20T00:29:08.722Z,8.72
2022-10-20T00:31:38.008Z,8.72
2022-10-20T00:34:08.846Z,8.68
2022-10-20T00:36:39.245Z,8.60
2022-10-20T00:39:08.861Z,8.64
2022-10-20T00:41:38.055Z,8.72
2022-10-20T00:44:22.235Z,8.69
2022-10-20T00:46:51.377Z,8.63
2022-10-20T00:49:22.558Z,8.66
2022-10-20T00:51:51.773Z,8.68
2022-10-20T00:54:22.232Z,8.80
2022-10-20T00:56:51.544Z,8.84
2022-10-20T00:59:21.321Z,8.88
2022-10-20T01:01:50.585Z,8.98
2022-10-20T01:04:21.631Z,8.87
2022-10-20T01:06:50.837Z,8.85
2022-10-20T01:09:20.197Z,8.88
2022-10-20T01:11:53.354Z,8.86
2022-10-20T01:17:16.593Z,8.93
2022-10-20T01:19:57.931Z,8.84
2022-10-20T01:22:38.752Z,8.74
2022-10-20T01:25:28.671Z,8.83
2022-10-20T01:28:08.791Z,8.73
2022-10-20T01:30:51.195Z,8.72
2022-10-20T01:33:40.401Z,8.72
2022-10-20T01:36:12.595Z,8.71
2022-10-20T01:38:42.616Z,8.72
2022-10-20T01:41:31.093Z,8.82
2022-10-20T01:50:46.743Z,8.75
2022-10-20T01:53:27.341Z,8.72
2022-10-20T01:56:06.570Z,8.73
2022-10-20T01:59:00.551Z,8.98
2022-10-20T02:02:05.302Z,8.94
2022-10-20T02:04:54.056Z,8.83
2022-10-20T02:10:52.923Z,8.79
2022-10-20T02:13:28.730Z,8.74
2022-10-20T02:16:12.615Z,8.77
2022-10-20T02:19:05.109Z,8.77
2022-10-20T02:21:36.140Z,8.74
2022-10-20T02:24:06.274Z,8.83
2022-10-20T02:26:35.610Z,8.84
2022-10-20T02:29:07.540Z,8.79
2022-10-20T02:31:36.806Z,8.76
2022-10-20T02:34:06.655Z,8.73
2022-10-20T02:36:39.235Z,8.63
2022-10-20T02:39:08.872Z,8.66
2022-10-20T02:41:38.558Z,8.72
2022-10-20T02:44:12.795Z,8.63
2022-10-20T02:49:57.667Z,8.69
2022-10-20T02:52:44.268Z,8.58
2022-10-20T02:55:23.162Z,8.51
2022-10-20T02:58:11.554Z,8.56
2022-10-20T03:01:29.906Z,8.43
2022-10-20T03:04:30.333Z,8.34
2022-10-20T03:07:25.750Z,8.27
2022-10-20T03:13:54.253Z,8.04
2022-10-20T03:16:46.462Z,8.19
2022-10-20T03:19:18.419Z,8.11
2022-10-20T03:21:55.205Z,8.15
2022-10-20T03:24:25.367Z,7.97
2022-10-20T03:27:11.811Z,7.95
2022-10-20T03:29:46.193Z,7.86
2022-10-20T03:32:26.049Z,7.89
2022-10-20T03:35:33.856Z,7.82
2022-10-20T03:45:28.522Z,7.75
2022-10-20T03:48:02.487Z,7.77
2022-10-20T03:50:39.304Z,7.62
2022-10-20T03:53:14.875Z,7.65
2022-10-20T03:55:44.457Z,7.78
2022-10-20T03:58:13.583Z,7.72
2022-10-20T04:00:44.532Z,7.58
2022-10-20T04:03:13.629Z,7.56
2022-10-20T04:06:00.354Z,7.55
2022-10-20T04:08:47.464Z,7.58
2022-10-20T04:11:28.630Z,7.61
2022-10-20T04:13:58.170Z,7.71
2022-10-20T04:24:49.368Z,7.71
2022-10-20T04:27:29.443Z,7.60
2022-10-20T04:30:01.064Z,7.59
2022-10-20T04:32:31.980Z,7.72
2022-10-20T04:35:01.294Z,7.95
2022-10-20T04:37:30.808Z,8.14
2022-10-20T04:40:00.101Z,7.96
2022-10-20T04:42:29.525Z,7.81
2022-10-20T04:47:27.984Z,7.83
2022-10-20T04:49:58.621Z,7.87
2022-10-20T04:52:28.161Z,7.87
2022-10-20T04:54:57.361Z,7.95
2022-10-20T04:57:26.889Z,8.03
2022-10-20T04:59:59.228Z,7.97
2022-10-20T05:02:31.317Z,8.06
2022-10-20T05:05:07.679Z,8.11
2022-10-20T05:07:52.057Z,8.15
2022-10-20T05:10:21.278Z,8.10
2022-10-20T05:12:50.782Z,8.00
2022-10-20T05:15:19.935Z,8.11
2022-10-20T05:17:50.023Z,8.10
2022-10-20T05:20:20.663Z,7.92
2022-10-20T05:22:50.102Z,7.72
2022-10-20T05:25:35.634Z,7.77
2022-10-20T05:28:06.378Z,7.68
2022-10-20T05:33:12.504Z,7.77
2022-10-20T05:35:45.474Z,8.01
2022-10-20T05:38:15.019Z,8.08
2022-10-20T05:40:44.357Z,7.77
2022-10-20T05:43:15.862Z,7.75
2022-10-20T05:45:45.217Z,7.76
2022-10-20T05:48:14.638Z,7.78
2022-10-20T05:53:19.969Z,7.64
2022-10-20T06:00:11.475Z,7.59
2022-10-20T06:02:40.867Z,7.61
2022-10-20T06:05:10.175Z,7.65
2022-10-20T06:07:41.017Z,7.65
2022-10-20T06:10:12.583Z,7.61
2022-10-20T06:12:45.385Z,7.56
2022-10-20T06:15:23.576Z,7.61
2022-10-20T06:17:53.165Z,7.61
2022-10-20T06:20:29.417Z,7.63
2022-10-20T06:23:03.701Z,7.62
2022-10-20T06:25:33.187Z,7.59
2022-10-20T06:28:07.277Z,7.55
2022-10-20T06:30:36.834Z,7.60
2022-10-20T06:33:06.866Z,7.62
2022-10-20T06:35:40.554Z,7.56
2022-10-20T06:38:27.011Z,7.56
2022-10-20T06:40:56.972Z,7.64
2022-10-20T06:43:32.388Z,7.70
2022-10-20T06:46:02.984Z,7.70
2022-10-20T06:48:32.395Z,7.71
2022-10-20T06:51:02.479Z,7.66
2022-10-20T06:53:33.388Z,7.72
2022-10-20T06:56:03.250Z,7.76
2022-10-20T06:58:32.722Z,7.85
2022-10-20T07:01:04.423Z,7.78
2022-10-20T07:03:36.828Z,7.88
2022-10-20T07:06:06.478Z,7.90
2022-10-20T07:08:37.638Z,8.03
2022-10-20T07:11:07.824Z,8.10
2022-10-20T07:13:37.224Z,8.24
2022-10-20T07:16:07.109Z,8.31
2022-10-20T07:18:36.740Z,8.33
2022-10-20T07:21:06.720Z,8.36
2022-10-20T07:23:37.640Z,8.47
2022-10-20T07:26:07.927Z,8.49
2022-10-20T07:28:37.024Z,8.58
2022-10-20T07:31:07.853Z,8.69
2022-10-20T07:33:37.270Z,8.82
2022-10-20T07:36:12.471Z,8.82
2022-10-20T07:38:43.477Z,8.86
2022-10-20T07:41:14.832Z,9.25
2022-10-20T07:43:44.216Z,9.23
2022-10-20T07:46:13.949Z,9.14
2022-10-20T07:48:43.190Z,9.24
2022-10-20T07:51:16.732Z,9.35
2022-10-20T07:53:47.335Z,9.54
2022-10-20T07:56:17.126Z,9.61
2022-10-20T07:58:47.030Z,9.75
2022-10-20T08:01:16.472Z,9.80
2022-10-20T08:03:45.644Z,9.78
2022-10-20T08:06:15.152Z,10.01
2022-10-20T08:08:44.386Z,10.20
2022-10-20T08:11:15.622Z,10.43
2022-10-20T08:13:44.754Z,10.46
2022-10-20T08:16:19.113Z,10.57
2022-10-20T08:19:03.647Z,10.49
2022-10-20T08:21:33.471Z,10.42
2022-10-20T08:24:02.979Z,10.47
2022-10-20T08:26:33.782Z,10.79
2022-10-20T08:29:03.649Z,10.83
2022-10-20T08:31:33.032Z,10.89
2022-10-20T08:34:02.264Z,11.04
2022-10-20T08:36:31.570Z,11.12
2022-10-20T08:39:03.610Z,11.21
2022-10-20T08:42:02.506Z,11.06
2022-10-20T08:44:27.860Z,11.18
2022-10-20T08:46:57.729Z,11.35
2022-10-20T08:49:27.905Z,10.81
2022-10-20T08:51:58.847Z,11.44
2022-10-20T08:54:27.970Z,11.48
2022-10-20T08:57:00.005Z,11.72
2022-10-20T08:59:29.982Z,11.75
2022-10-20T09:01:59.478Z,11.60
2022-10-20T09:04:29.413Z,11.63
2022-10-20T09:06:59.729Z,11.93
2022-10-20T09:09:29.820Z,11.95
2022-10-20T09:12:05.040Z,12.03
2022-10-20T09:14:35.845Z,12.10
2022-10-20T09:17:09.125Z,11.94
2022-10-20T09:19:40.727Z,12.23
2022-10-20T09:22:12.690Z,12.25
2022-10-20T09:24:44.981Z,12.40
2022-10-20T09:27:23.617Z,12.33
2022-10-20T09:29:52.807Z,12.36
2022-10-20T09:35:14.228Z,12.64
2022-10-20T09:37:43.825Z,12.76
2022-10-20T09:40:15.871Z,12.72
2022-10-20T09:42:48.169Z,12.64
2022-10-20T09:45:18.490Z,12.82
2022-10-20T09:47:48.191Z,12.87
2022-10-20T09:50:19.618Z,12.91
2022-10-20T09:52:48.972Z,12.97
2022-10-20T09:55:21.003Z,12.95
2022-10-20T09:57:51.959Z,13.03
2022-10-20T10:00:36.365Z,13.06
2022-10-20T10:03:10.462Z,13.08
2022-10-20T10:05:39.568Z,13.14
2022-10-20T10:08:12.921Z,13.24
2022-10-20T10:10:42.140Z,13.27
2022-10-20T10:13:24.818Z,13.28
2022-10-20T10:16:01.586Z,13.30
2022-10-20T10:18:31.122Z,13.43
2022-10-20T10:21:01.198Z,13.44
2022-10-20T10:23:31.082Z,13.56
2022-10-20T10:26:02.327Z,13.62
2022-10-20T10:28:38.282Z,13.59
2022-10-20T10:31:11.634Z,13.61
2022-10-20T10:33:41.037Z,13.59
2022-10-20T10:36:13.111Z,13.64
2022-10-20T10:38:42.543Z,13.63
2022-10-20T10:41:13.740Z,13.67
2022-10-20T10:43:48.626Z,13.71
2022-10-20T10:46:18.861Z,13.73
2022-10-20T10:48:52.218Z,13.75
2022-10-20T10:51:23.914Z,13.77
2022-10-20T10:53:56.639Z,13.79
2022-10-20T10:56:29.600Z,13.80
2022-10-20T10:59:01.025Z,13.82
2022-10-20T11:01:43.291Z,13.76
2022-10-20T11:04:36.675Z,13.73
2022-10-20T11:07:10.724Z,13.75
2022-10-20T11:09:41.408Z,13.77
2022-10-20T11:12:22.378Z,13.85
2022-10-20T11:14:55.732Z,13.80
2022-10-20T11:17:31.780Z,13.84
2022-10-20T11:20:14.665Z,13.86
2022-10-20T11:22:46.406Z,13.72
2022-10-20T11:25:20.818Z,13.82
2022-10-20T11:27:50.039Z,13.84
2022-10-20T11:30:22.314Z,13.93
2022-10-20T11:32:52.839Z,13.88
2022-10-20T11:35:24.587Z,13.92
2022-10-20T11:38:00.489Z,13.90
2022-10-20T11:40:32.200Z,13.97
2022-10-20T11:43:02.669Z,14.01
2022-10-20T11:45:39.842Z,13.97
2022-10-20T11:48:12.084Z,14.07
2022-10-20T11:50:41.753Z,14.12
2022-10-20T11:53:30.716Z,14.11
2022-10-20T11:56:18.610Z,14.13
2022-10-20T11:59:06.355Z,14.18
2022-10-20T12:01:38.137Z,14.26
2022-10-20T12:04:25.212Z,14.22
2022-10-20T12:07:00.132Z,14.36
2022-10-20T12:09:39.487Z,14.47
2022-10-20T12:12:09.693Z,14.52
2022-10-20T12:14:39.698Z,14.57
2022-10-20T12:17:27.938Z,14.70
2022-10-20T12:20:12.108Z,14.81
2022-10-20T12:22:47.934Z,14.94
2022-10-20T12:25:21.804Z,15.02
2022-10-20T12:28:06.225Z,15.13
2022-10-20T12:30:45.224Z,15.26
2022-10-20T12:33:19.816Z,15.43
2022-10-20T12:36:03.689Z,15.53
2022-10-20T12:38:33.200Z,15.62
2022-10-20T12:41:02.416Z,15.56
2022-10-20T12:43:32.952Z,15.74
2022-10-20T12:46:06.029Z,15.88
2022-10-20T12:48:37.660Z,16.04
2022-10-20T12:51:08.343Z,16.18
2022-10-20T12:53:37.776Z,16.25
2022-10-20T12:56:07.206Z,16.34
2022-10-20T12:58:36.694Z,16.45
2022-10-20T13:01:10.432Z,16.53
2022-10-20T13:03:46.994Z,16.58
2022-10-20T13:06:34.682Z,16.67
2022-10-20T13:09:28.183Z,16.74
2022-10-20T13:11:58.597Z,16.87
2022-10-20T13:14:44.508Z,16.97
2022-10-20T13:17:17.529Z,17.04
2022-10-20T13:19:48.943Z,17.18
2022-10-20T13:22:31.005Z,17.25
2022-10-20T13:25:00.631Z,17.34
2022-10-20T13:27:30.377Z,17.41
2022-10-20T13:29:59.938Z,17.47
2022-10-20T13:32:31.918Z,17.53
2022-10-20T13:35:03.806Z,17.59
2022-10-20T13:37:45.981Z,17.66
2022-10-20T13:40:23.373Z,17.72
2022-10-20T13:42:56.669Z,17.71
2022-10-20T13:45:28.967Z,17.80
2022-10-20T13:48:01.086Z,17.83
2022-10-20T13:50:32.788Z,17.90
2022-10-20T13:53:03.422Z,17.97
2022-10-20T13:55:33.362Z,18.05
2022-10-20T13:58:04.109Z,18.06
2022-10-20T14:00:33.964Z,18.09
2022-10-20T14:03:04.066Z,18.17
2022-10-20T14:05:39.552Z,18.26
2022-10-20T14:08:09.466Z,18.29
2022-10-20T14:10:40.574Z,18.33
2022-10-20T14:13:09.700Z,18.40
2022-10-20T14:15:39.130Z,18.40
2022-10-20T14:18:08.861Z,18.46
2022-10-20T14:20:41.980Z,18.46
2022-10-20T14:23:11.235Z,18.48
2022-10-20T14:25:40.687Z,18.51
2022-10-20T14:28:12.751Z,18.48
2022-10-20T14:30:42.166Z,18.45
2022-10-20T14:33:13.618Z,18.43
2022-10-20T14:35:45.123Z,18.46
2022-10-20T14:38:18.036Z,18.41
2022-10-20T14:40:51.071Z,18.39
2022-10-20T14:43:20.923Z,18.39
2022-10-20T14:45:53.452Z,18.41
2022-10-20T14:48:22.737Z,18.41
2022-10-20T14:50:53.633Z,18.37
2022-10-20T14:53:30.695Z,18.34
2022-10-20T14:56:02.292Z,18.22
2022-10-20T14:58:32.859Z,18.11
2022-10-20T15:01:20.162Z,18.00
2022-10-20T15:03:49.483Z,17.89
2022-10-20T15:06:20.757Z,17.72
2022-10-20T15:08:57.904Z,17.57
2022-10-20T15:11:28.387Z,17.44
2022-10-20T15:13:59.158Z,17.30
2022-10-20T15:16:36.302Z,17.21
2022-10-20T15:19:18.125Z,17.04
2022-10-20T15:21:48.977Z,16.91
2022-10-20T15:24:18.056Z,16.75
2022-10-20T15:26:47.537Z,16.60
2022-10-20T15:29:16.655Z,16.49
2022-10-20T15:31:46.121Z,16.42
2022-10-20T15:34:15.243Z,16.27
2022-10-20T15:36:47.558Z,16.16
2022-10-20T15:39:19.536Z,16.02
2022-10-20T15:41:51.625Z,15.94
2022-10-20T15:44:23.434Z,15.80
2022-10-20T15:46:56.165Z,15.68
2022-10-20T15:49:25.311Z,15.59
2022-10-20T15:51:54.649Z,15.52
2022-10-20T15:54:25.307Z,15.40
2022-10-20T15:56:54.843Z,15.28
2022-10-20T15:59:24.008Z,15.18
2022-10-20T16:01:53.364Z,15.08
2022-10-20T16:04:23.807Z,15.01
2022-10-20T16:06:57.539Z,14.92
2022-10-20T16:09:29.811Z,14.81
2022-10-20T16:11:59.175Z,14.71
2022-10-20T16:14:28.385Z,14.65
2022-10-20T16:17:01.006Z,14.59
2022-10-20T16:19:30.427Z,14.49
2022-10-20T16:21:59.770Z,14.40
2022-10-20T16:24:30.453Z,14.32
2022-10-20T16:26:59.969Z,14.21
2022-10-20T16:29:29.348Z,14.15
2022-10-20T16:31:59.255Z,14.09
2022-10-20T16:34:28.890Z,13.98
2022-10-20T16:36:58.346Z,13.92
2022-10-20T16:39:27.806Z,13.86
2022-10-20T16:41:58.692Z,13.79
2022-10-20T16:44:27.977Z,13.72
2022-10-20T16:46:57.383Z,13.62
2022-10-20T16:49:26.727Z,13.55
2022-10-20T16:51:56.479Z,13.47
2022-10-20T16:54:25.602Z,13.40
2022-10-20T16:56:55.126Z,13.31
2022-10-20T16:59:25.664Z,13.25
2022-10-20T17:01:55.253Z,13.16
2022-10-20T17:04:24.421Z,13.11
2022-10-20T17:06:53.963Z,13.00
2022-10-20T17:09:25.466Z,12.93
2022-10-20T17:11:55.159Z,12.87
2022-10-20T17:14:25.730Z,12.80
2022-10-20T17:16:55.214Z,12.72
2022-10-20T17:19:24.532Z,12.63
2022-10-20T17:21:56.303Z,12.56
2022-10-20T17:24:25.697Z,12.49
2022-10-20T17:26:55.305Z,12.43
2022-10-20T17:29:26.166Z,12.33
2022-10-20T17:31:57.539Z,12.28
2022-10-20T17:34:26.721Z,12.21
2022-10-20T17:36:56.268Z,12.17
2022-10-20T17:39:25.485Z,12.08
2022-10-20T17:41:55.054Z,12.02
2022-10-20T17:44:25.747Z,11.92
2022-10-20T17:46:55.390Z,11.86
2022-10-20T17:49:24.494Z,11.80
2022-10-20T17:51:53.919Z,11.73
2022-10-20T17:54:23.166Z,11.66
2022-10-20T17:56:52.719Z,11.59
2022-10-20T17:59:21.873Z,11.52
2022-10-20T18:01:52.713Z,11.45
2022-10-20T18:04:21.842Z,11.37
2022-10-20T18:06:51.270Z,11.30
2022-10-20T18:09:20.647Z,11.26
2022-10-20T18:11:51.339Z,11.21
2022-10-20T18:14:20.551Z,11.16
2022-10-20T18:16:49.901Z,11.09
2022-10-20T18:19:20.624Z,11.04
2022-10-20T18:21:50.042Z,11.00
2022-10-20T18:24:19.392Z,10.98
2022-10-20T18:26:48.755Z,10.91
2022-10-20T18:29:18.042Z,10.86
2022-10-20T18:31:47.776Z,10.82
2022-10-20T18:34:20.618Z,10.79
2022-10-20T18:36:51.902Z,10.74
2022-10-20T18:39:21.135Z,10.71
2022-10-20T18:41:51.859Z,10.63
2022-10-20T18:44:21.823Z,10.60
2022-10-20T18:46:58.538Z,10.54
2022-10-20T18:49:28.084Z,10.47
2022-10-20T18:51:59.687Z,10.42
2022-10-20T18:54:28.903Z,10.37
2022-10-20T18:56:58.333Z,10.33
2022-10-20T18:59:27.643Z,10.28
2022-10-20T19:01:57.217Z,10.22
2022-10-20T19:04:26.487Z,10.16
2022-10-20T19:06:56.503Z,10.13
2022-10-20T19:09:28.427Z,10.08
2022-10-20T19:12:02.758Z,10.03
2022-10-20T19:14:38.769Z,9.96
2022-10-20T19:17:09.095Z,9.90
2022-10-20T19:19:38.759Z,9.87
2022-10-20T19:22:09.109Z,9.84
2022-10-20T19:24:40.772Z,9.81
2022-10-20T19:27:27.535Z,9.75
2022-10-20T19:29:58.754Z,9.71
2022-10-20T19:32:28.795Z,9.71
2022-10-20T19:34:58.215Z,9.73
2022-10-20T19:37:28.073Z,9.64
2022-10-20T19:39:58.832Z,9.62
2022-10-20T19:42:28.386Z,9.73
2022-10-20T19:44:57.595Z,9.54
2022-10-20T19:47:27.121Z,9.45
2022-10-20T19:49:56.311Z,9.38
2022-10-20T19:52:25.735Z,9.36
2022-10-20T19:54:55.370Z,9.33
2022-10-20T19:57:26.225Z,9.32
2022-10-20T19:59:55.395Z,9.27
2022-10-20T20:02:24.905Z,9.22
2022-10-20T20:04:54.048Z,9.23
2022-10-20T20:07:23.540Z,9.17
2022-10-20T20:09:52.772Z,9.12
2022-10-20T20:12:22.263Z,9.07
2022-10-20T20:14:52.965Z,9.01
2022-10-20T20:17:22.579Z,8.97
2022-10-20T20:20:15.041Z,8.95
2022-10-20T20:22:44.513Z,8.89
2022-10-20T20:25:13.810Z,8.86
2022-10-20T20:27:43.254Z,8.84
2022-10-20T20:30:14.009Z,8.83
2022-10-20T20:32:46.895Z,8.80
2022-10-20T20:35:18.986Z,8.74
2022-10-20T20:37:48.540Z,8.71
2022-10-20T20:40:18.846Z,8.68
2022-10-20T20:42:48.636Z,8.67
2022-10-20T20:45:19.417Z,8.64
2022-10-20T20:47:48.833Z,8.60
2022-10-20T20:50:18.203Z,8.56
2022-10-20T20:52:47.655Z,8.53
2022-10-20T20:55:16.958Z,8.52
2022-10-20T20:57:46.396Z,8.52
2022-10-20T21:00:15.803Z,8.47
2022-10-20T21:02:47.131Z,8.44
2022-10-20T21:05:16.357Z,8.40
2022-10-20T21:07:45.730Z,8.34
2022-10-20T21:10:14.963Z,8.35
2022-10-20T21:12:44.367Z,8.30
2022-10-20T21:15:13.721Z,8.25
2022-10-20T21:17:43.100Z,8.24
2022-10-20T21:20:13.783Z,8.21
2022-10-20T21:22:43.113Z,8.19
2022-10-20T21:25:12.366Z,8.14
2022-10-20T21:27:41.902Z,8.14
2022-10-20T21:30:11.501Z,8.08
2022-10-20T21:32:41.045Z,8.07
2022-10-20T21:35:10.331Z,8.04
2022-10-20T21:37:41.217Z,8.02
2022-10-20T21:40:10.929Z,7.98
2022-10-20T21:42:40.474Z,7.98
2022-10-20T21:45:10.152Z,7.94
2022-10-20T21:47:39.452Z,7.90
2022-10-20T21:50:08.800Z,7.90
2022-10-20T21:52:39.288Z,7.87
2022-10-20T21:55:10.465Z,7.82
2022-10-20T21:57:40.185Z,7.88
2022-10-20T22:00:10.329Z,7.84
2022-10-20T22:02:39.850Z,7.80
2022-10-20T22:05:09.137Z,7.75
2022-10-20T22:07:39.150Z,7.78
2022-10-20T22:10:10.331Z,7.73
2022-10-20T22:12:39.788Z,7.70
2022-10-20T22:15:09.482Z,7.70
2022-10-20T22:17:39.276Z,7.66
2022-10-20T22:20:09.625Z,7.66
2022-10-20T22:22:39.486Z,7.63
2022-10-20T22:25:10.739Z,7.63
2022-10-20T22:27:43.147Z,7.62
2022-10-20T22:30:12.726Z,7.61
2022-10-20T22:32:42.325Z,7.62
2022-10-20T22:35:11.509Z,7.61
2022-10-20T22:37:40.972Z,7.59
2022-10-20T22:40:12.224Z,7.54
2022-10-20T22:42:41.876Z,7.52
2022-10-20T22:45:11.780Z,7.55
2022-10-20T22:47:41.136Z,7.58
2022-10-20T22:50:10.376Z,7.46
2022-10-20T22:52:39.960Z,7.51
2022-10-20T22:55:09.441Z,7.46
2022-10-20T22:57:40.320Z,7.48
2022-10-20T23:00:09.922Z,7.46
2022-10-20T23:02:39.809Z,7.49
2022-10-20T23:05:09.553Z,7.47
2022-10-20T23:07:39.299Z,7.41
2022-10-20T23:10:08.759Z,7.41
2022-10-20T23:12:38.398Z,7.42
2022-10-20T23:15:09.557Z,7.47
2022-10-20T23:17:39.229Z,7.51
2022-10-20T23:20:08.760Z,7.52
2022-10-20T23:22:38.109Z,7.44
2022-10-20T23:25:07.629Z,7.34
2022-10-20T23:27:37.276Z,7.30
2022-10-20T23:30:06.935Z,7.30
2022-10-20T23:32:37.744Z,7.30
2022-10-20T23:35:07.433Z,7.33
2022-10-20T23:37:38.321Z,7.30
2022-10-20T23:40:08.427Z,7.32
2022-10-20T23:42:37.763Z,7.29
2022-10-20T23:45:07.235Z,7.24
2022-10-20T23:47:38.252Z,7.26
2022-10-20T23:50:07.740Z,7.26
2022-10-20T23:52:40.084Z,7.24
2022-10-20T23:55:11.924Z,7.18
2022-10-20T23:57:44.096Z,7.15
